Time;durP1;ratioP1;P1;durP2;ratioP2;P2;SDS_P1;SDS_P2;PMS_P1;PMS_P2;Temp;Humidity;BMP_temperature;BMP_pressure;BME280_temperature;BME280_humidity;BME280_pressure;Samples;Min_cycle;Max_cycle;Signal;HPM_P1;HPM_P2
2024/03/17 00:02:04;;;;;;;7.70;3.03;;;;;;;-145.69;73.74;52373.09;5134002;27;20659;-79
2024/03/17 00:04:30;;;;;;;6.87;3.80;;;;;;;-145.69;73.59;52383.00;5134138;27;20200;-80
2024/03/17 00:06:58;;;;;;;4.83;3.33;;;;;;;-145.69;73.95;52406.75;5134099;27;20651;-81
2024/03/17 00:09:25;;;;;;;4.30;3.13;;;;;;;-145.69;73.75;52414.69;5133817;27;20205;-80
2024/03/17 00:11:51;;;;;;;5.40;3.57;;;;;;;-145.69;73.74;52384.97;5134010;27;20201;-80
2024/03/17 00:14:18;;;;;;;5.73;3.57;;;;;;;-145.69;74.78;52388.94;5134263;27;20204;-81
2024/03/17 00:16:44;;;;;;;5.63;3.23;;;;;;;-145.69;74.37;52381.00;5127798;27;20540;-81
2024/03/17 00:19:11;;;;;;;6.50;4.13;;;;;;;-145.69;74.73;52386.97;5131417;27;20193;-80
2024/03/17 00:21:36;;;;;;;7.90;3.67;;;;;;;-145.69;74.47;52388.94;5133782;27;20197;-80
2024/03/17 00:24:04;;;;;;;6.70;3.17;;;;;;;-145.69;74.12;52414.69;5139517;27;20195;-81
2024/03/17 00:26:34;;;;;;;6.47;2.90;;;;;;;-145.69;73.89;52394.88;5153117;27;20665;-80
2024/03/17 00:29:00;;;;;;;4.23;2.70;;;;;;;-145.69;74.23;52398.84;5154468;27;20206;-81
2024/03/17 00:31:26;;;;;;;4.37;2.57;;;;;;;-145.69;74.05;52371.13;5154588;27;20207;-81
2024/03/17 00:33:52;;;;;;;7.80;3.03;;;;;;;-145.69;73.89;52369.13;5154503;27;20200;-81
2024/03/17 00:36:19;;;;;;;5.63;3.73;;;;;;;-145.69;73.20;52396.84;5154651;27;20532;-80
2024/03/17 00:38:45;;;;;;;6.77;4.10;;;;;;;-145.69;73.60;52381.00;5147509;27;20230;-80
2024/03/17 00:41:12;;;;;;;8.40;4.30;;;;;;;-145.69;73.77;52396.84;5139073;27;20199;-80
2024/03/17 00:43:38;;;;;;;6.97;4.33;;;;;;;-145.69;73.66;52396.84;5133156;27;20197;-80
2024/03/17 00:46:05;;;;;;;6.07;4.57;;;;;;;-145.69;74.28;52432.50;5133757;27;20196;-80
2024/03/17 00:48:31;;;;;;;8.97;4.87;;;;;;;-145.69;74.54;52377.06;5133694;27;20563;-81
2024/03/17 00:50:58;;;;;;;10.17;4.50;;;;;;;-145.69;73.67;52373.09;5133585;27;20687;-81
2024/03/17 00:53:24;;;;;;;6.60;4.17;;;;;;;-145.69;73.99;52375.06;5133694;27;20210;-80
2024/03/17 00:55:54;;;;;;;7.23;4.03;;;;;;;-145.69;74.31;52373.09;5133322;27;20207;-81
2024/03/17 00:58:21;;;;;;;8.97;4.10;;;;;;;-145.69;74.24;52373.09;5133480;27;20239;-79
2024/03/17 01:00:48;;;;;;;7.50;3.57;;;;;;;-145.69;74.10;52412.69;5133293;28;20200;-81
2024/03/17 01:03:14;;;;;;;4.60;3.10;;;;;;;-145.69;74.05;52373.09;5133228;28;20197;-81
2024/03/17 01:05:43;;;;;;;5.70;3.40;;;;;;;-145.69;74.09;52400.81;5132753;27;20203;-80
2024/03/17 01:08:08;;;;;;;6.17;3.50;;;;;;;-145.69;73.84;52390.91;5133455;28;20200;-80
2024/03/17 01:10:38;;;;;;;7.83;4.03;;;;;;;-145.69;73.92;52396.84;5133302;28;20205;-80
2024/03/17 01:13:04;;;;;;;7.10;4.40;;;;;;;-145.69;74.15;52361.22;5139293;27;20184;-80
2024/03/17 01:15:32;;;;;;;7.20;4.63;;;;;;;-145.69;73.69;52384.97;5153905;27;20685;-81
2024/03/17 01:17:58;;;;;;;7.03;4.07;;;;;;;-145.69;73.96;52377.06;5153649;27;20638;-80
2024/03/17 01:20:24;;;;;;;8.20;4.60;;;;;;;-145.69;73.87;52381.00;5157008;27;20291;-80
2024/03/17 01:22:50;;;;;;;6.30;3.97;;;;;;;-145.69;73.57;52396.84;5147153;27;20200;-81
2024/03/17 01:25:16;;;;;;;8.03;4.67;;;;;;;-145.69;73.48;52388.94;5137814;27;20647;-81
2024/03/17 01:27:43;;;;;;;5.57;3.90;;;;;;;-145.69;73.69;52400.81;5136931;27;20655;-80
2024/03/17 01:30:11;;;;;;;8.60;4.00;;;;;;;-145.69;73.62;52373.09;5137248;27;20207;-80
2024/03/17 01:32:37;;;;;;;6.63;3.73;;;;;;;-145.69;73.61;52363.19;5137189;27;20193;-80
2024/03/17 01:35:05;;;;;;;7.60;4.47;;;;;;;-145.69;73.65;52381.00;5137049;27;20283;-79
2024/03/17 01:37:31;;;;;;;8.37;4.40;;;;;;;-145.69;73.47;52384.97;5136981;27;20267;-80
2024/03/17 01:39:58;;;;;;;5.50;3.90;;;;;;;-145.69;73.53;52337.44;5137130;27;20201;-80
2024/03/17 01:42:23;;;;;;;7.57;4.23;;;;;;;-145.69;72.97;52377.06;5137286;27;20849;-79
2024/03/17 01:44:51;;;;;;;7.47;4.20;;;;;;;-145.69;73.70;52392.91;5157957;27;20196;-80
2024/03/17 01:47:18;;;;;;;8.80;4.10;;;;;;;-145.69;73.81;52353.28;5152426;27;20192;-80
2024/03/17 01:49:47;;;;;;;6.83;4.47;;;;;;;-145.69;73.76;52404.78;5136714;27;20257;-80
2024/03/17 01:52:14;;;;;;;6.83;4.47;;;;;;;-145.69;73.24;52408.75;5136640;27;20759;-80
2024/03/17 01:54:40;;;;;;;8.40;4.47;;;;;;;-145.69;73.42;52359.22;5137008;27;20220;-81
2024/03/17 01:57:07;;;;;;;9.83;5.00;;;;;;;-145.69;73.31;52377.06;5136341;27;20291;-79
2024/03/17 01:59:33;;;;;;;7.00;4.67;;;;;;;-145.69;73.24;52381.00;5136693;27;20197;-80
2024/03/17 02:02:00;;;;;;;7.10;4.23;;;;;;;-145.69;73.79;52384.97;5136703;27;20203;-81
2024/03/17 02:04:26;;;;;;;6.97;4.13;;;;;;;-145.69;73.36;52377.06;5136917;27;20207;-80
2024/03/17 02:06:54;;;;;;;7.80;4.33;;;;;;;-145.69;73.30;52373.09;5135987;27;20193;-79
2024/03/17 02:09:21;;;;;;;4.93;3.50;;;;;;;-145.69;73.52;52369.13;5136872;27;20216;-79
2024/03/17 02:11:48;;;;;;;6.73;3.93;;;;;;;-145.69;72.54;52373.09;5136502;27;20231;-79
2024/03/17 02:14:17;;;;;;;8.83;4.37;;;;;;;-145.69;73.07;52375.06;5152510;27;20188;-78
2024/03/17 02:16:43;;;;;;;7.83;4.60;;;;;;;-145.69;73.14;52353.28;5134802;27;20287;-79
2024/03/17 02:19:09;;;;;;;8.80;3.97;;;;;;;-145.69;72.78;52402.78;5136546;27;20229;-82
2024/03/17 02:21:37;;;;;;;6.80;4.17;;;;;;;-145.69;72.83;52384.97;5136345;27;20201;-79
2024/03/17 02:24:04;;;;;;;8.47;4.37;;;;;;;-145.69;72.48;52369.13;5136406;27;20209;-78
2024/03/17 02:26:31;;;;;;;6.93;4.47;;;;;;;-145.69;72.46;52373.09;5136114;27;20197;-79
2024/03/17 02:28:56;;;;;;;6.43;3.93;;;;;;;-145.69;72.95;52377.06;5135904;27;20200;-80
2024/03/17 02:31:23;;;;;;;11.50;4.40;;;;;;;-145.69;72.58;52386.97;5136153;27;20196;-79
2024/03/17 02:33:48;;;;;;;9.80;4.40;;;;;;;-145.69;73.03;52363.19;5135290;27;20216;-79
2024/03/17 02:36:17;;;;;;;8.07;3.70;;;;;;;-145.69;72.55;52396.84;5135904;27;20201;-79
2024/03/17 02:41:29;;;;;;;5.97;4.03;;;;;;;-145.69;72.02;52371.13;5136053;27;20556;-79
2024/03/17 02:43:56;;;;;;;6.30;3.53;;;;;;;-145.69;73.05;52377.06;5135392;27;20209;-78
2024/03/17 02:46:23;;;;;;;5.83;3.40;;;;;;;-145.69;72.94;52390.91;5135824;27;20204;-79
2024/03/17 02:48:52;;;;;;;5.03;3.37;;;;;;;-145.69;72.75;52410.72;5135874;27;20231;-78
2024/03/17 02:51:20;;;;;;;6.80;3.93;;;;;;;-145.69;73.40;52361.22;5135887;27;20237;-80
2024/03/17 02:53:48;;;;;;;5.90;4.20;;;;;;;-145.69;73.47;52377.06;5135467;27;20201;-80
2024/03/17 02:56:16;;;;;;;5.23;3.73;;;;;;;-145.69;73.42;52402.78;5135185;27;20208;-80
2024/03/17 02:58:46;;;;;;;7.90;4.43;;;;;;;-145.69;73.59;52386.97;5135880;27;20228;-79
2024/03/17 03:01:13;;;;;;;7.37;3.97;;;;;;;-145.69;73.18;52363.19;5135538;27;20228;-80
2024/03/17 03:03:40;;;;;;;7.73;3.93;;;;;;;-145.69;73.18;52349.31;5140906;27;20200;-80
2024/03/17 03:06:09;;;;;;;6.50;4.37;;;;;;;-145.69;72.69;52365.16;5135492;27;20563;-79
2024/03/17 03:08:36;;;;;;;7.87;4.30;;;;;;;-145.69;73.16;52388.94;5135485;27;20201;-80
2024/03/17 03:11:04;;;;;;;8.33;4.60;;;;;;;-145.69;73.18;52381.00;5134941;27;20625;-80
2024/03/17 03:13:30;;;;;;;9.57;4.27;;;;;;;-145.69;72.99;52384.97;5134913;27;20658;-80
2024/03/17 03:15:58;;;;;;;7.20;4.27;;;;;;;-145.69;72.64;52359.22;5135572;27;20207;-81
2024/03/17 03:18:24;;;;;;;6.77;3.80;;;;;;;-145.69;72.56;52355.28;5134979;27;20260;-79
2024/03/17 03:20:52;;;;;;;9.67;4.70;;;;;;;-145.69;72.63;52388.94;5135283;27;20204;-81
2024/03/17 03:23:19;;;;;;;7.17;3.57;;;;;;;-145.69;72.62;52406.75;5135114;27;20261;-80
2024/03/17 03:25:46;;;;;;;6.83;3.97;;;;;;;-145.69;72.96;52386.97;5135419;27;20235;-81
2024/03/17 03:28:13;;;;;;;10.87;4.70;;;;;;;-145.69;72.52;52396.84;5133950;27;20192;-81
2024/03/17 03:30:39;;;;;;;6.73;3.93;;;;;;;-145.69;72.12;52369.13;5135125;27;20275;-80
2024/03/17 03:33:07;;;;;;;9.10;4.27;;;;;;;-145.69;72.49;52392.91;5148981;27;20196;-80
2024/03/17 03:35:34;;;;;;;6.43;4.13;;;;;;;-145.69;72.45;52379.03;5134966;27;20245;-81
2024/03/17 03:38:02;;;;;;;6.27;4.13;;;;;;;-145.69;72.41;52384.97;5134447;27;20217;-81
2024/03/17 03:40:29;;;;;;;8.00;4.67;;;;;;;-145.69;72.11;52381.00;5135067;27;20207;-81
2024/03/17 03:42:56;;;;;;;6.60;4.27;;;;;;;-145.69;72.07;52390.91;5133536;27;20200;-80
2024/03/17 03:45:22;;;;;;;7.30;4.27;;;;;;;-145.69;71.86;52381.00;5133979;27;20194;-81
2024/03/17 03:47:50;;;;;;;5.90;3.93;;;;;;;-145.69;72.24;52402.78;5134700;27;20211;-81
2024/03/17 03:50:21;;;;;;;5.50;3.37;;;;;;;-145.69;71.48;52361.22;5134408;27;20197;-80
2024/03/17 03:52:48;;;;;;;5.50;3.60;;;;;;;-145.69;71.78;52375.06;5134681;27;20288;-81
2024/03/17 03:55:19;;;;;;;8.03;3.70;;;;;;;-145.69;72.04;52365.16;5134567;27;20197;-81
2024/03/17 03:57:48;;;;;;;8.83;3.90;;;;;;;-145.69;71.82;52361.22;5134277;27;20196;-81
2024/03/17 04:00:15;;;;;;;8.43;4.23;;;;;;;-145.69;71.87;52373.09;5134115;27;20196;-80
2024/03/17 04:02:44;;;;;;;5.73;4.00;;;;;;;-145.69;72.27;52377.06;5144678;27;20294;-81
2024/03/17 04:05:11;;;;;;;6.67;4.27;;;;;;;-145.69;71.60;52369.13;5138027;27;20189;-81
2024/03/17 04:07:40;;;;;;;7.13;4.07;;;;;;;-145.69;72.13;52365.16;5134182;27;20524;-81
2024/03/17 04:10:07;;;;;;;5.77;3.93;;;;;;;-145.69;71.84;52406.75;5134211;27;20200;-81
2024/03/17 04:12:34;;;;;;;10.50;4.60;;;;;;;-145.69;72.12;52383.00;5134139;27;20647;-81
2024/03/17 04:15:01;;;;;;;8.50;4.47;;;;;;;-145.69;71.58;52377.06;5134106;27;20197;-81
2024/03/17 04:17:27;;;;;;;6.60;4.20;;;;;;;-145.69;71.96;52381.00;5133185;27;20200;-80
2024/03/17 04:19:54;;;;;;;4.93;3.50;;;;;;;-145.69;71.57;52388.94;5134013;27;20307;-81
2024/03/17 04:22:22;;;;;;;8.40;3.93;;;;;;;-145.69;71.62;52384.97;5130596;27;20284;-81
2024/03/17 04:24:53;;;;;;;10.63;4.50;;;;;;;-145.69;71.54;52384.97;5133821;27;20286;-81
2024/03/17 04:27:19;;;;;;;10.87;4.33;;;;;;;-145.69;71.82;52404.78;5133835;27;20287;-81
2024/03/17 04:29:47;;;;;;;6.97;4.03;;;;;;;-145.69;71.31;52396.84;5133623;27;20197;-81
2024/03/17 04:32:14;;;;;;;8.43;3.90;;;;;;;-145.69;71.46;52373.09;5140369;27;20550;-81
2024/03/17 04:34:40;;;;;;;8.07;4.33;;;;;;;-145.69;71.90;52369.13;5154257;27;20292;-80
2024/03/17 04:37:07;;;;;;;7.90;3.53;;;;;;;-145.69;71.77;52379.03;5154473;27;20200;-81
2024/03/17 04:39:34;;;;;;;5.43;3.70;;;;;;;-145.69;71.67;52373.09;5154288;27;20220;-80
2024/03/17 04:42:01;;;;;;;6.23;4.10;;;;;;;-145.69;71.95;52400.81;5154221;27;20207;-81
2024/03/17 04:44:29;;;;;;;5.90;3.63;;;;;;;-145.69;71.99;52384.97;5154285;27;20661;-81
2024/03/17 04:46:55;;;;;;;9.57;4.07;;;;;;;-145.69;71.86;52384.97;5141916;27;20203;-82
2024/03/17 04:49:22;;;;;;;5.97;3.73;;;;;;;-145.69;71.96;52394.88;5133795;27;20218;-81
2024/03/17 04:51:48;;;;;;;3.83;3.07;;;;;;;-145.69;72.33;52381.00;5133122;27;20232;-80
2024/03/17 04:54:15;;;;;;;5.00;3.37;;;;;;;-145.69;71.62;52369.13;5133238;27;20201;-80
2024/03/17 04:56:41;;;;;;;5.43;3.07;;;;;;;-145.69;72.07;52422.59;5133637;27;20215;-81
2024/03/17 04:59:09;;;;;;;4.67;3.20;;;;;;;-145.69;72.20;52400.81;5133396;27;20220;-81
2024/03/17 05:01:36;;;;;;;6.53;3.33;;;;;;;-145.69;72.52;52359.22;5133735;27;20208;-80
2024/03/17 05:04:04;;;;;;;6.27;4.00;;;;;;;-145.69;72.10;52375.06;5154434;27;20196;-80
2024/03/17 05:06:30;;;;;;;5.00;3.30;;;;;;;-145.69;72.28;52388.94;5145371;27;20253;-81
2024/03/17 05:08:57;;;;;;;6.20;3.57;;;;;;;-145.69;72.02;52369.13;5133156;28;20196;-81
2024/03/17 05:11:24;;;;;;;6.80;2.97;;;;;;;-145.69;72.12;52377.06;5132978;28;20204;-82
2024/03/17 05:13:50;;;;;;;4.70;3.10;;;;;;;-145.69;71.96;52400.81;5133068;27;20208;-80
2024/03/17 05:16:18;;;;;;;7.00;3.13;;;;;;;-145.69;72.04;52396.84;5133625;27;20197;-81
2024/03/17 05:18:45;;;;;;;4.63;3.17;;;;;;;-145.69;71.51;52404.78;5133108;28;20259;-81
2024/03/17 05:21:11;;;;;;;6.07;3.40;;;;;;;-145.69;72.08;52353.28;5133800;27;20223;-81
2024/03/17 05:23:38;;;;;;;6.13;3.20;;;;;;;-145.69;72.37;52365.16;5133078;27;20208;-81
2024/03/17 05:26:05;;;;;;;5.63;3.33;;;;;;;-145.69;71.86;52408.75;5132982;27;20544;-81
2024/03/17 05:28:32;;;;;;;5.23;3.60;;;;;;;-145.69;72.66;52422.59;5132963;28;20205;-81
2024/03/17 05:30:58;;;;;;;5.13;3.17;;;;;;;-145.69;72.70;52394.88;5133151;27;20210;-81
2024/03/17 05:33:27;;;;;;;5.77;3.30;;;;;;;-145.69;72.50;52384.97;5132588;27;20203;-81
2024/03/17 05:35:55;;;;;;;12.93;3.90;;;;;;;-145.69;72.49;52394.88;5132775;28;20647;-80
2024/03/17 05:38:22;;;;;;;9.17;3.30;;;;;;;-145.69;72.74;52369.13;5133054;28;20204;-80
2024/03/17 05:40:56;;;;;;;5.93;3.50;;;;;;;-145.69;72.90;52373.09;5133071;27;20648;-80
2024/03/17 05:43:23;;;;;;;5.77;3.70;;;;;;;-145.69;72.93;52412.69;5133220;28;20201;-80
2024/03/17 05:45:50;;;;;;;5.70;3.53;;;;;;;-145.69;72.81;52420.63;5133180;27;20236;-80
2024/03/17 05:48:16;;;;;;;5.87;3.30;;;;;;;-145.69;72.29;52416.66;5132644;27;20201;-82
2024/03/17 05:50:44;;;;;;;6.00;3.33;;;;;;;-145.69;71.92;52420.63;5132978;27;20236;-80
2024/03/17 05:53:11;;;;;;;4.90;2.73;;;;;;;-145.69;72.07;52416.66;5133057;27;20567;-79
2024/03/17 05:55:39;;;;;;;6.50;3.30;;;;;;;-145.69;72.49;52416.66;5132708;28;20599;-79
2024/03/17 05:58:08;;;;;;;8.67;3.80;;;;;;;-145.69;72.33;52384.97;5132966;27;20250;-80
2024/03/17 06:00:35;;;;;;;4.93;2.53;;;;;;;-145.69;72.63;52396.84;5133093;27;20231;-79
2024/03/17 06:03:02;;;;;;;5.77;2.63;;;;;;;-145.69;72.86;52406.75;5131953;28;20192;-79
2024/03/17 06:05:32;;;;;;;6.05;3.10;;;;;;;-145.69;73.89;52386.97;5132597;27;20430;-79
2024/03/17 06:07:59;;;;;;;4.53;3.07;;;;;;;-145.69;73.17;52404.78;5136467;27;20203;-80
2024/03/17 06:10:27;;;;;;;4.97;2.90;;;;;;;-145.69;72.53;52404.78;5136788;27;20208;-79
2024/03/17 06:12:53;;;;;;;4.37;2.93;;;;;;;-145.69;73.25;52402.78;5136270;27;20246;-80
2024/03/17 06:15:20;;;;;;;6.70;3.30;;;;;;;-145.69;72.96;52412.69;5136314;27;20197;-81
2024/03/17 06:17:47;;;;;;;6.53;2.90;;;;;;;-145.69;72.17;52392.91;5136438;27;20203;-79
2024/03/17 06:20:14;;;;;;;4.63;2.53;;;;;;;-145.69;73.13;52404.78;5136083;27;20228;-83
2024/03/17 06:22:40;;;;;;;5.30;2.37;;;;;;;-145.69;72.87;52420.63;5136173;27;20203;-81
2024/03/17 06:25:09;;;;;;;5.40;2.87;;;;;;;-145.69;73.70;52426.56;5136211;27;20197;-81
2024/03/17 06:27:35;;;;;;;4.60;2.57;;;;;;;-145.69;73.70;52400.81;5136420;27;20197;-79
2024/03/17 06:30:03;;;;;;;4.03;2.77;;;;;;;-145.69;72.99;52392.91;5117849;27;20208;-81
2024/03/17 06:32:30;;;;;;;4.33;2.70;;;;;;;-145.69;74.41;52428.53;5117871;27;20204;-80
2024/03/17 06:34:57;;;;;;;5.83;3.33;;;;;;;-145.69;73.64;52424.59;5135790;27;20224;-81
2024/03/17 06:37:24;;;;;;;5.47;2.60;;;;;;;-145.69;72.92;52406.75;5136000;27;20320;-80
2024/03/17 06:39:50;;;;;;;4.97;2.87;;;;;;;-145.69;74.01;52400.81;5135999;27;20295;-81
2024/03/17 06:42:18;;;;;;;6.23;2.90;;;;;;;-145.69;73.70;52379.03;5136039;27;20196;-80
2024/03/17 06:44:45;;;;;;;4.13;2.63;;;;;;;-145.69;73.68;52392.91;5135745;27;20193;-81
2024/03/17 06:47:11;;;;;;;4.70;2.97;;;;;;;-145.69;73.38;52402.78;5136047;27;20201;-81
2024/03/17 06:49:38;;;;;;;5.33;2.80;;;;;;;-145.69;73.84;52424.59;5135465;27;20197;-80
2024/03/17 06:52:05;;;;;;;5.20;3.40;;;;;;;-145.69;73.82;52408.75;5135607;27;20235;-81
2024/03/17 06:54:33;;;;;;;4.97;2.90;;;;;;;-145.69;73.43;52392.91;5136158;27;20197;-80
2024/03/17 06:56:59;;;;;;;5.67;2.47;;;;;;;-145.69;72.89;52388.94;5135323;27;20644;-81
2024/03/17 06:59:27;;;;;;;3.43;2.07;;;;;;;-145.69;72.90;52392.91;5135361;27;20220;-81
2024/03/17 07:01:54;;;;;;;8.07;3.57;;;;;;;-145.69;72.69;52377.06;5135206;27;20204;-81
2024/03/17 07:04:20;;;;;;;8.33;3.30;;;;;;;-145.69;72.70;52404.78;5153571;27;20207;-80
2024/03/17 07:06:47;;;;;;;3.83;2.77;;;;;;;-145.69;72.61;52375.06;5145950;27;20189;-81
2024/03/17 07:09:13;;;;;;;10.40;2.90;;;;;;;-145.69;72.56;52381.00;5135506;27;20200;-81
2024/03/17 07:11:40;;;;;;;3.67;2.33;;;;;;;-145.69;72.26;52386.97;5135485;27;20208;-79
2024/03/17 07:14:06;;;;;;;2.90;2.27;;;;;;;-145.69;71.61;52406.75;5135322;27;20208;-80
2024/03/17 07:16:34;;;;;;;4.47;2.37;;;;;;;-145.69;71.96;52367.16;5134811;27;20197;-81
2024/03/17 07:19:02;;;;;;;5.67;1.93;;;;;;;-145.69;72.17;52400.81;5135124;27;20249;-79
2024/03/17 07:21:29;;;;;;;1.97;1.67;;;;;;;-145.69;71.94;52361.22;5135236;27;20207;-80
2024/03/17 07:23:55;;;;;;;1.80;1.60;;;;;;;-145.69;71.47;52375.06;5135165;27;20204;-80
2024/03/17 07:26:22;;;;;;;3.43;1.87;;;;;;;-145.69;70.52;52365.16;5134898;27;20208;-80
2024/03/17 07:28:48;;;;;;;2.93;1.93;;;;;;;-145.69;72.46;52345.38;5134664;27;20227;-80
2024/03/17 07:31:17;;;;;;;4.90;2.00;;;;;;;-145.69;71.67;52353.28;5134635;27;20201;-80
2024/03/17 07:33:45;;;;;;;5.00;1.92;;;;;;;-145.69;69.85;52365.16;5134399;27;20232;-80
2024/03/17 07:36:11;;;;;;;4.80;1.80;;;;;;;-145.69;70.46;52373.09;5134538;27;20649;-80
2024/03/17 07:38:38;;;;;;;3.10;1.80;;;;;;;-145.69;69.77;52353.28;5135116;27;20204;-82
2024/03/17 07:41:06;;;;;;;3.23;1.37;;;;;;;-145.69;69.24;52369.13;5134424;27;20857;-82
2024/03/17 07:43:35;;;;;;;2.78;1.75;;;;;;;-145.69;69.64;52339.44;5132145;27;20197;-81
2024/03/17 07:46:03;;;;;;;6.75;1.35;;;;;;;-145.69;69.48;52371.13;5134677;27;20228;-81
2024/03/17 07:48:31;;;;;;;2.03;1.30;;;;;;;-145.69;68.40;52363.19;5134753;27;20254;-81
2024/03/17 07:51:03;;;;;;;3.08;1.42;;;;;;;-145.69;68.39;52329.53;5133451;27;20796;-81
2024/03/17 07:53:30;;;;;;;2.45;1.23;;;;;;;-145.69;68.06;52355.28;5134776;27;20196;-81
2024/03/17 07:56:01;;;;;;;2.83;1.27;;;;;;;-145.69;67.15;52323.59;5134332;27;20200;-81
2024/03/17 07:58:28;;;;;;;3.45;1.27;;;;;;;-145.69;64.71;52365.16;5134448;27;20240;-81
2024/03/17 08:00:59;;;;;;;2.67;1.13;;;;;;;-145.69;63.27;52347.34;5134168;27;20232;-81
2024/03/17 08:03:26;;;;;;;3.20;1.30;;;;;;;-145.69;63.25;52325.56;5134363;27;20667;-80
2024/03/17 08:05:52;;;;;;;3.55;1.30;;;;;;;-145.69;62.69;52349.31;5134442;27;20192;-81
2024/03/17 08:08:21;;;;;;;4.75;1.40;;;;;;;-145.69;62.25;52343.38;5133994;27;20681;-82
2024/03/17 08:10:48;;;;;;;3.05;1.20;;;;;;;-145.69;61.94;52321.59;5134198;27;20200;-80
2024/03/17 08:13:15;;;;;;;2.72;1.15;;;;;;;-145.69;60.59;52307.75;5134563;27;20227;-82
2024/03/17 08:15:42;;;;;;;3.22;1.10;;;;;;;-145.69;60.77;52317.66;5134436;27;20600;-82
2024/03/17 08:18:09;;;;;;;3.30;1.02;;;;;;;-145.69;60.24;52301.81;5134063;27;20204;-82
2024/03/17 08:20:37;;;;;;;4.72;1.52;;;;;;;-145.69;59.92;52335.47;5134098;27;20239;-81
2024/03/17 08:23:05;;;;;;;3.08;1.13;;;;;;;-145.69;58.88;52317.66;5134015;27;20647;-81
2024/03/17 08:25:33;;;;;;;2.88;1.20;;;;;;;-145.69;58.49;52295.84;5133787;27;20238;-80
2024/03/17 08:28:00;;;;;;;3.90;1.20;;;;;;;-145.69;58.27;52272.09;5132913;27;20674;-81
2024/03/17 08:30:26;;;;;;;3.97;1.27;;;;;;;-145.69;56.91;52301.81;5133100;27;20710;-81
2024/03/17 08:32:53;;;;;;;3.63;1.40;;;;;;;-145.69;55.83;52293.88;5133682;27;20245;-82
2024/03/17 08:35:19;;;;;;;1.75;0.88;;;;;;;-145.69;54.96;52297.84;5133612;27;20201;-81
2024/03/17 08:37:46;;;;;;;3.88;1.17;;;;;;;-145.69;55.16;52278.03;5131905;27;20216;-81
2024/03/17 08:40:13;;;;;;;5.75;1.33;;;;;;;-145.69;54.92;52295.84;5131272;27;20247;-80
2024/03/17 08:42:41;;;;;;;5.03;1.90;;;;;;;-145.69;53.74;52282.00;5133839;27;20280;-80
2024/03/17 08:45:11;;;;;;;3.70;1.50;;;;;;;-145.69;54.09;52278.03;5133398;27;20197;-80
2024/03/17 08:47:37;;;;;;;4.60;2.20;;;;;;;-145.69;53.25;52268.13;5132521;27;20651;-80
2024/03/17 08:50:04;;;;;;;3.10;1.80;;;;;;;-145.69;54.34;52285.97;5132997;27;20201;-79
2024/03/17 08:52:31;;;;;;;4.43;1.55;;;;;;;-145.69;54.95;52307.75;5133508;27;20196;-80
2024/03/17 08:54:58;;;;;;;4.43;1.65;;;;;;;-145.69;54.02;52297.84;5133752;27;20308;-82
2024/03/17 08:57:25;;;;;;;4.82;1.73;;;;;;;-145.69;54.76;52297.84;5133713;27;20193;-81
2024/03/17 08:59:53;;;;;;;5.93;1.98;;;;;;;-145.69;54.70;52276.06;5133324;27;20567;-80
2024/03/17 09:02:19;;;;;;;4.63;1.80;;;;;;;-145.69;54.41;52272.09;5133220;27;20231;-80
2024/03/17 09:04:46;;;;;;;7.05;1.85;;;;;;;-145.69;54.91;52274.06;5133273;28;20201;-80
2024/03/17 09:07:15;;;;;;;4.32;1.80;;;;;;;-145.69;54.68;52295.84;5133000;27;20223;-80
2024/03/17 09:09:41;;;;;;;2.90;1.50;;;;;;;-145.69;54.63;52268.13;5133399;27;20204;-80
2024/03/17 09:12:09;;;;;;;6.13;2.28;;;;;;;-145.69;54.63;52264.16;5133083;27;20200;-80
2024/03/17 09:14:36;;;;;;;5.70;2.40;;;;;;;-145.69;54.06;52274.06;5133046;27;20686;-80
2024/03/17 09:17:04;;;;;;;4.00;1.90;;;;;;;-145.69;53.63;52289.91;5133236;28;20241;-80
2024/03/17 09:19:33;;;;;;;4.05;1.38;;;;;;;-145.69;53.12;52278.03;5133227;27;20216;-80
2024/03/17 09:21:59;;;;;;;5.85;1.48;;;;;;;-145.69;54.86;52289.91;5133561;28;20203;-80
2024/03/17 09:24:26;;;;;;;4.25;1.25;;;;;;;-145.69;53.42;52270.13;5133053;27;20193;-82
2024/03/17 09:26:53;;;;;;;3.90;1.42;;;;;;;-145.69;53.11;52295.84;5132780;28;20197;-82
2024/03/17 09:29:19;;;;;;;9.52;2.03;;;;;;;-145.69;53.70;52299.81;5133281;27;20275;-81
2024/03/17 09:31:46;;;;;;;7.50;2.65;;;;;;;-145.69;53.28;52250.31;5133143;27;20197;-81
2024/03/17 09:34:14;;;;;;;5.82;1.70;;;;;;;-145.69;53.91;52276.06;5133053;27;20204;-80
2024/03/17 09:36:40;;;;;;;3.58;1.60;;;;;;;-145.69;52.69;52266.16;5132989;27;20213;-80
2024/03/17 09:39:08;;;;;;;4.90;2.00;;;;;;;-145.69;53.03;52285.97;5133268;28;20201;-81
2024/03/17 09:41:34;;;;;;;4.57;1.55;;;;;;;-145.69;51.10;52250.31;5134516;27;20311;-81
2024/03/17 09:44:01;;;;;;;2.60;1.23;;;;;;;-145.69;50.59;52262.19;5136862;27;20647;-81
2024/03/17 09:46:28;;;;;;;3.30;1.20;;;;;;;-145.69;49.76;52272.09;5136613;27;20204;-80
2024/03/17 09:48:57;;;;;;;4.53;1.27;;;;;;;-145.69;50.07;52252.28;5136350;27;20193;-80
2024/03/17 09:51:26;;;;;;;3.78;1.35;;;;;;;-145.69;49.50;52270.13;5136553;27;20227;-80
2024/03/17 09:53:53;;;;;;;3.75;1.20;;;;;;;-145.69;50.09;52242.38;5136786;27;20201;-80
2024/03/17 09:56:21;;;;;;;5.70;1.25;;;;;;;-145.69;50.44;52264.16;5136860;27;20200;-81
2024/03/17 09:58:48;;;;;;;3.05;1.25;;;;;;;-145.69;50.69;52250.31;5136502;27;20560;-80
2024/03/17 10:01:15;;;;;;;3.70;1.75;;;;;;;-145.69;49.30;52246.34;5135773;27;20232;-81
2024/03/17 10:03:44;;;;;;;3.20;1.30;;;;;;;-145.69;49.18;52244.38;5137213;27;20214;-81
2024/03/17 10:06:12;;;;;;;3.80;1.25;;;;;;;-145.69;48.42;52226.53;5136669;27;20209;-81
2024/03/17 10:08:44;;;;;;;5.15;1.67;;;;;;;-145.69;47.66;52242.38;5136077;27;20197;-81
2024/03/17 10:11:12;;;;;;;5.53;1.70;;;;;;;-145.69;48.54;52256.25;5136300;27;20200;-80
2024/03/17 10:13:38;;;;;;;2.00;1.25;;;;;;;-145.69;47.05;52254.28;5136056;27;20205;-81
2024/03/17 10:16:05;;;;;;;3.83;1.38;;;;;;;-145.69;47.21;52246.34;5136583;27;20203;-80
2024/03/17 10:18:32;;;;;;;2.70;1.02;;;;;;;-145.69;47.96;52258.22;5136153;27;20719;-80
2024/03/17 10:20:59;;;;;;;2.90;0.95;;;;;;;-145.69;46.18;52254.28;5136387;27;20220;-81
2024/03/17 10:23:28;;;;;;;4.07;1.13;;;;;;;-145.69;45.30;52238.44;5136240;27;20197;-81
2024/03/17 10:25:55;;;;;;;7.70;1.30;;;;;;;-145.69;45.62;52244.38;5136202;27;20726;-80
2024/03/17 10:28:22;;;;;;;3.03;1.05;;;;;;;-145.69;45.72;52226.53;5135944;27;20201;-81
2024/03/17 10:30:59;;;;;;;4.65;1.35;;;;;;;-145.69;45.97;52226.53;5135535;27;20203;-80
2024/03/17 10:33:26;;;;;;;5.95;1.67;;;;;;;-145.69;46.58;52234.47;5129652;27;20464;-81
2024/03/17 10:36:00;;;;;;;6.80;1.52;;;;;;;-145.69;47.15;52198.81;5134613;27;20292;-82
2024/03/17 10:38:27;;;;;;;5.68;1.60;;;;;;;-145.69;46.71;52214.66;5135467;27;20196;-81
2024/03/17 10:40:53;;;;;;;8.40;1.85;;;;;;;-145.69;44.67;52218.63;5135816;27;20269;-81
2024/03/17 10:43:25;;;;;;;4.78;1.25;;;;;;;-145.69;43.54;52234.47;5136699;27;20193;-79
2024/03/17 10:45:54;;;;;;;5.47;1.35;;;;;;;-145.69;44.05;52194.88;5135855;27;20192;-81
2024/03/17 10:48:21;;;;;;;4.65;1.27;;;;;;;-145.69;43.57;52224.56;5135829;27;20261;-81
2024/03/17 10:50:49;;;;;;;5.53;1.40;;;;;;;-145.69;43.46;52242.38;5135291;27;20630;-80
2024/03/17 10:53:26;;;;;;;5.00;1.40;;;;;;;-145.69;43.64;52214.66;5135065;27;20207;-82
2024/03/17 10:56:05;;;;;;;4.22;1.05;;;;;;;-145.69;42.14;52200.81;5126613;27;20762;-80
2024/03/17 10:58:36;;;;;;;4.22;1.33;;;;;;;-145.69;42.00;52198.81;5115479;28;20194;-81
2024/03/17 11:01:04;;;;;;;4.45;1.20;;;;;;;-145.69;42.48;52224.56;5123776;27;20588;-80
2024/03/17 11:03:33;;;;;;;1.50;0.93;;;;;;;-145.69;41.57;52175.06;5135680;27;20203;-81
2024/03/17 11:06:03;;;;;;;3.25;1.20;;;;;;;-145.69;39.56;52214.66;5135544;27;20249;-79
2024/03/17 11:08:33;;;;;;;4.05;0.80;;;;;;;-145.69;39.98;52202.78;5135965;27;20204;-80
2024/03/17 11:11:00;;;;;;;6.13;1.60;;;;;;;-145.69;40.70;52165.16;5135484;27;20725;-80
2024/03/17 11:13:30;;;;;;;8.15;1.67;;;;;;;-145.69;40.47;52198.81;5135324;27;20647;-80
2024/03/17 11:16:01;;;;;;;4.18;1.38;;;;;;;-145.69;40.00;52186.94;5135673;27;20211;-80
2024/03/17 11:18:34;;;;;;;6.15;1.42;;;;;;;-145.69;40.88;52210.72;5135483;27;21148;-79
2024/03/17 11:21:07;;;;;;;6.53;0.98;;;;;;;-145.69;39.80;52186.94;5135352;27;20224;-79